createdAt,value
2019-02-23T00:03:45.619Z,2.34
2019-02-23T00:08:48.512Z,2.20
2019-02-23T00:13:51.641Z,2.20
2019-02-23T00:18:55.132Z,2.34
2019-02-23T00:23:57.992Z,2.18
2019-02-23T00:29:01.569Z,2.53
2019-02-23T00:34:04.459Z,2.22
2019-02-23T00:39:08.302Z,1.99
2019-02-23T00:44:10.793Z,2.08
2019-02-23T00:49:13.420Z,2.11
2019-02-23T00:54:16.143Z,1.99
2019-02-23T00:59:19.359Z,1.64
2019-02-23T01:04:22.290Z,1.94
2019-02-23T01:09:25.553Z,2.18
2019-02-23T01:14:28.788Z,2.14
2019-02-23T01:19:32.241Z,2.20
2019-02-23T01:24:35.124Z,1.93
2019-02-23T01:29:38.634Z,2.06
2019-02-23T01:34:41.104Z,1.92
2019-02-23T01:39:44.639Z,2.02
2019-02-23T01:44:48.170Z,1.90
2019-02-23T01:49:58.540Z,2.24
2019-02-23T01:54:55.570Z,2.13
2019-02-23T01:59:59.174Z,2.01
2019-02-23T02:05:02.612Z,2.12
2019-02-23T02:10:08.270Z,2.01
2019-02-23T02:15:12.755Z,2.23
2019-02-23T02:20:16.273Z,2.36
2019-02-23T02:25:19.484Z,2.02
2019-02-23T02:30:24.256Z,1.91
2019-02-23T02:35:27.448Z,1.99
2019-02-23T02:40:30.659Z,2.15
2019-02-23T02:45:33.840Z,2.44
2019-02-23T02:50:37.113Z,2.33
2019-02-23T02:55:40.250Z,2.11
2019-02-23T03:00:43.483Z,1.59
2019-02-23T03:05:46.689Z,1.87
2019-02-23T03:10:49.928Z,2.33
2019-02-23T03:15:52.905Z,2.48
2019-02-23T03:20:55.468Z,2.54
2019-02-23T03:25:58.416Z,2.71
2019-02-23T03:31:01.327Z,2.66
2019-02-23T03:36:04.540Z,2.42
2019-02-23T03:41:07.759Z,2.58
2019-02-23T03:46:11.144Z,2.68
2019-02-23T03:51:14.006Z,2.72
2019-02-23T03:56:17.156Z,2.52
2019-02-23T04:01:20.351Z,2.67
2019-02-23T04:06:23.618Z,2.61
2019-02-23T04:11:26.891Z,2.63
2019-02-23T04:16:30.473Z,2.47
2019-02-23T04:21:33.869Z,2.47
2019-02-23T04:26:37.315Z,2.42
2019-02-23T04:31:40.213Z,2.34
2019-02-23T04:36:43.532Z,2.18
2019-02-23T04:41:46.784Z,2.30
2019-02-23T04:46:50.389Z,2.36
2019-02-23T04:51:53.375Z,1.78
2019-02-23T04:56:56.178Z,1.68
2019-02-23T05:01:59.194Z,1.33
2019-02-23T05:07:02.053Z,1.13
2019-02-23T05:12:04.958Z,1.05
2019-02-23T05:17:07.813Z,1.51
2019-02-23T05:22:10.380Z,1.21
2019-02-23T05:27:15.350Z,1.01
2019-02-23T05:32:18.535Z,0.98
2019-02-23T05:37:21.887Z,1.19
2019-02-23T05:42:24.777Z,1.42
2019-02-23T05:47:28.000Z,1.61
2019-02-23T05:52:31.165Z,1.65
2019-02-23T05:57:34.381Z,1.61
2019-02-23T06:02:37.300Z,1.71
2019-02-23T06:07:40.510Z,1.50
2019-02-23T06:12:43.435Z,1.43
2019-02-23T06:17:46.985Z,1.73
2019-02-23T06:22:50.606Z,1.42
2019-02-23T06:27:53.454Z,1.18
2019-02-23T06:32:56.316Z,1.16
2019-02-23T06:37:59.267Z,1.04
2019-02-23T06:43:02.405Z,0.61
2019-02-23T06:48:05.089Z,0.63
2019-02-23T06:53:08.325Z,0.49
2019-02-23T06:58:11.201Z,0.70
2019-02-23T07:03:13.668Z,0.77
2019-02-23T07:08:16.610Z,0.88
2019-02-23T07:13:19.482Z,1.04
2019-02-23T07:18:22.356Z,1.25
2019-02-23T07:23:25.188Z,1.07
2019-02-23T07:28:28.393Z,1.17
2019-02-23T07:33:33.089Z,1.32
2019-02-23T07:38:36.349Z,1.50
2019-02-23T07:43:39.570Z,1.53
2019-02-23T07:48:43.059Z,1.30
2019-02-23T07:53:46.320Z,1.17
2019-02-23T07:58:49.490Z,1.69
2019-02-23T08:03:53.007Z,1.46
2019-02-23T08:08:56.531Z,1.55
2019-02-23T08:13:59.441Z,1.39
2019-02-23T08:19:02.348Z,1.35
2019-02-23T08:24:05.364Z,1.44
2019-02-23T08:29:08.548Z,1.49
2019-02-23T08:34:12.063Z,1.37
2019-02-23T08:39:15.391Z,1.71
2019-02-23T08:44:18.563Z,1.94
2019-02-23T08:49:22.056Z,2.00
2019-02-23T08:54:24.965Z,2.16
2019-02-23T08:59:28.286Z,2.57
2019-02-23T09:04:30.862Z,2.35
2019-02-23T09:09:34.137Z,2.49
2019-02-23T09:14:37.357Z,2.48
2019-02-23T09:19:40.244Z,2.67
2019-02-23T09:24:43.209Z,2.71
2019-02-23T09:29:46.344Z,2.64
2019-02-23T09:34:49.219Z,2.76
2019-02-23T09:39:52.054Z,2.94
2019-02-23T09:44:55.383Z,3.23
2019-02-23T09:49:58.912Z,3.18
2019-02-23T09:55:02.517Z,3.16
2019-02-23T10:00:07.139Z,3.22
2019-02-23T10:05:10.688Z,3.23
2019-02-23T10:10:13.906Z,3.38
2019-02-23T10:15:17.468Z,4.03
2019-02-23T10:20:20.908Z,4.40
2019-02-23T10:25:23.840Z,4.11
2019-02-23T10:30:27.296Z,3.83
2019-02-23T10:35:30.520Z,4.38
2019-02-23T10:40:33.761Z,4.50
2019-02-23T10:45:38.340Z,4.98
2019-02-23T10:50:41.549Z,4.65
2019-02-23T10:55:45.201Z,4.76
2019-02-23T11:00:48.500Z,4.95
2019-02-23T11:05:52.046Z,4.92
2019-02-23T11:10:55.220Z,5.05
2019-02-23T11:15:58.187Z,5.28
2019-02-23T11:21:01.284Z,5.35
2019-02-23T11:26:05.883Z,5.16
2019-02-23T11:31:09.153Z,4.91
2019-02-23T11:36:12.655Z,5.18
2019-02-23T11:41:15.958Z,5.10
2019-02-23T11:46:19.209Z,5.02
2019-02-23T11:51:22.389Z,5.44
2019-02-23T11:56:25.302Z,5.37
2019-02-23T12:01:28.106Z,5.77
2019-02-23T12:06:31.307Z,5.66
2019-02-23T12:11:34.532Z,5.62
2019-02-23T12:16:38.150Z,5.46
2019-02-23T12:21:40.940Z,5.62
2019-02-23T12:26:44.481Z,5.98
2019-02-23T12:31:47.875Z,6.23
2019-02-23T12:36:50.988Z,7.02
2019-02-23T12:41:54.246Z,6.73
2019-02-23T12:46:56.426Z,7.04
2019-02-23T12:51:59.475Z,7.47
2019-02-23T12:57:03.120Z,8.11
2019-02-23T13:02:06.418Z,8.75
2019-02-23T13:07:10.183Z,8.58
2019-02-23T13:12:53.867Z,8.38
2019-02-23T13:18:44.730Z,8.56
2019-02-23T13:24:29.302Z,8.64
2019-02-23T13:30:09.600Z,9.03
2019-02-23T13:35:31.066Z,8.27
2019-02-23T13:41:15.163Z,8.39
2019-02-23T13:47:11.761Z,8.15
2019-02-23T13:53:08.625Z,8.24
2019-02-23T13:58:39.508Z,8.05
2019-02-23T14:04:32.786Z,8.45
2019-02-23T14:10:30.052Z,8.25
2019-02-23T14:16:16.566Z,8.43
2019-02-23T14:21:47.007Z,9.98
2019-02-23T14:27:35.950Z,9.94
2019-02-23T14:33:29.794Z,8.85
2019-02-23T14:38:57.222Z,8.50
2019-02-23T14:44:31.278Z,8.09
2019-02-23T14:50:13.491Z,7.95
2019-02-23T14:55:58.108Z,7.84
2019-02-23T15:01:51.814Z,7.60
2019-02-23T15:07:34.607Z,8.26
2019-02-23T15:12:59.831Z,8.49
2019-02-23T15:18:55.720Z,8.18
2019-02-23T15:24:55.243Z,7.69
2019-02-23T15:30:45.901Z,7.63
2019-02-23T15:36:26.255Z,7.33
2019-02-23T15:42:09.829Z,7.19
2019-02-23T15:47:50.738Z,7.37
2019-02-23T15:52:53.994Z,7.50
2019-02-23T15:57:57.777Z,7.28
2019-02-23T16:03:00.745Z,7.37
2019-02-23T16:08:03.856Z,6.98
2019-02-23T16:13:07.381Z,7.03
2019-02-23T16:18:10.989Z,7.26
2019-02-23T16:23:13.583Z,7.33
2019-02-23T16:28:17.091Z,7.34
2019-02-23T16:33:20.114Z,8.44
2019-02-23T16:38:23.122Z,7.34
2019-02-23T16:43:26.659Z,6.78
2019-02-23T16:48:29.934Z,6.75
2019-02-23T16:53:32.847Z,6.75
2019-02-23T16:58:36.038Z,6.33
2019-02-23T17:03:39.684Z,6.25
2019-02-23T17:08:43.203Z,6.06
2019-02-23T17:13:48.209Z,6.24
2019-02-23T17:18:51.635Z,6.18
2019-02-23T17:23:55.495Z,6.19
2019-02-23T17:28:59.002Z,6.11
2019-02-23T17:34:02.253Z,6.30
2019-02-23T17:39:06.590Z,6.25
2019-02-23T17:44:10.053Z,6.28
2019-02-23T17:49:13.479Z,6.10
2019-02-23T17:54:16.816Z,6.09
2019-02-23T17:59:19.540Z,5.66
2019-02-23T18:04:22.889Z,5.66
2019-02-23T18:09:26.361Z,5.57
2019-02-23T18:14:30.028Z,5.58
2019-02-23T18:19:33.092Z,5.65
2019-02-23T18:24:36.705Z,5.46
2019-02-23T18:29:40.904Z,5.57
2019-02-23T18:34:44.489Z,5.33
2019-02-23T18:39:47.745Z,5.37
2019-02-23T18:44:51.270Z,5.50
2019-02-23T18:49:54.878Z,5.15
2019-02-23T18:54:58.394Z,5.17
2019-02-23T19:00:01.750Z,5.11
2019-02-23T19:05:06.610Z,5.29
2019-02-23T19:10:10.494Z,5.22
2019-02-23T19:15:13.492Z,5.05
2019-02-23T19:20:17.093Z,5.00
2019-02-23T19:25:20.635Z,4.84
2019-02-23T19:30:24.171Z,4.90
2019-02-23T19:35:29.132Z,4.70
2019-02-23T19:40:33.022Z,4.67
2019-02-23T19:45:36.671Z,4.62
2019-02-23T19:50:43.499Z,4.61
2019-02-23T19:55:46.840Z,4.61
2019-02-23T20:00:51.410Z,4.50
2019-02-23T20:05:55.675Z,4.56
2019-02-23T20:10:59.250Z,4.37
2019-02-23T20:16:04.374Z,4.48
2019-02-23T20:21:08.363Z,4.24
2019-02-23T20:26:11.770Z,4.13
2019-02-23T20:31:14.979Z,4.34
2019-02-23T20:36:18.986Z,4.19
2019-02-23T20:41:22.393Z,4.17
2019-02-23T20:46:28.083Z,4.09
2019-02-23T20:51:31.384Z,4.10
2019-02-23T20:56:34.832Z,4.01
2019-02-23T21:01:38.423Z,3.95
2019-02-23T21:06:41.719Z,3.93
2019-02-23T21:11:45.029Z,3.89
2019-02-23T21:16:48.803Z,3.96
2019-02-23T21:21:52.448Z,3.82
2019-02-23T21:26:55.990Z,3.76
2019-02-23T21:31:59.537Z,3.83
2019-02-23T21:37:02.893Z,3.93
2019-02-23T21:42:06.162Z,3.93
2019-02-23T21:47:09.365Z,3.89
2019-02-23T21:52:13.190Z,3.83
2019-02-23T21:57:22.195Z,3.79
2019-02-23T22:02:22.118Z,7.71
2019-02-23T22:07:25.447Z,4.73
2019-02-23T22:12:28.574Z,4.17
2019-02-23T22:17:32.167Z,3.87
2019-02-23T22:22:35.069Z,3.72
2019-02-23T22:27:38.552Z,3.74
2019-02-23T22:32:41.722Z,3.72
2019-02-23T22:37:44.913Z,3.90
2019-02-23T22:42:48.374Z,4.14
2019-02-23T22:47:51.545Z,3.97
2019-02-23T22:52:54.742Z,3.95
2019-02-23T22:57:57.235Z,4.15
2019-02-23T23:03:00.711Z,4.32
2019-02-23T23:08:04.074Z,4.41
2019-02-23T23:13:07.024Z,4.29
2019-02-23T23:18:11.508Z,3.88
2019-02-23T23:23:14.103Z,4.09
2019-02-23T23:28:17.072Z,3.75
2019-02-23T23:33:19.982Z,3.63
2019-02-23T23:38:22.819Z,3.88
2019-02-23T23:43:26.362Z,3.92
2019-02-23T23:48:29.191Z,3.59
2019-02-23T23:53:32.558Z,3.59
2019-02-23T23:58:36.024Z,3.61
